Time;durP1;ratioP1;P1;durP2;ratioP2;P2;SDS_P1;SDS_P2;PMS_P1;PMS_P2;Temp;Humidity;BMP_temperature;BMP_pressure;BME280_temperature;BME280_humidity;BME280_pressure;Samples;Min_cycle;Max_cycle;Signal;HPM_P1;HPM_P2
2023/08/05 00:00:55;;;;;;;11.17;7.03;;;;;;;;;;5054849;28;20166;-69
2023/08/05 00:03:21;;;;;;;10.57;7.40;;;;;;;;;;5054429;28;20178;-69
2023/08/05 00:05:47;;;;;;;12.67;8.70;;;;;;;;;;5036591;28;20718;-70
2023/08/05 00:08:13;;;;;;;10.23;6.63;;;;;;;;;;5035552;28;20264;-69
2023/08/05 00:10:45;;;;;;;10.93;7.20;;;;;;;;;;5054353;28;20231;-69
2023/08/05 00:13:12;;;;;;;9.90;7.53;;;;;;;;;;5036338;28;20178;-70
2023/08/05 00:15:38;;;;;;;7.20;6.33;;;;;;;;;;5036320;28;20214;-70
2023/08/05 00:18:04;;;;;;;10.63;5.80;;;;;;;;;;5054114;28;20572;-70
2023/08/05 00:20:30;;;;;;;9.40;5.87;;;;;;;;;;5054684;28;20182;-69
2023/08/05 00:22:56;;;;;;;10.03;6.30;;;;;;;;;;5054106;28;20178;-69
2023/08/05 00:25:22;;;;;;;6.93;5.50;;;;;;;;;;5036181;28;20277;-70
2023/08/05 00:27:48;;;;;;;8.83;5.90;;;;;;;;;;5054376;28;20202;-70
2023/08/05 00:30:14;;;;;;;10.60;5.73;;;;;;;;;;5053887;28;20707;-69
2023/08/05 00:32:40;;;;;;;11.30;5.67;;;;;;;;;;5036115;28;20277;-69
2023/08/05 00:35:06;;;;;;;11.37;6.17;;;;;;;;;;5035872;28;20640;-69
2023/08/05 00:37:36;;;;;;;7.60;5.50;;;;;;;;;;5053757;28;20178;-70
2023/08/05 00:40:02;;;;;;;10.30;5.63;;;;;;;;;;5035851;28;20202;-70
2023/08/05 00:42:29;;;;;;;12.13;5.77;;;;;;;;;;5055406;28;20261;-70
2023/08/05 00:44:55;;;;;;;7.47;5.30;;;;;;;;;;5053754;28;20575;-69
2023/08/05 00:47:21;;;;;;;8.37;6.00;;;;;;;;;;5053423;28;20202;-69
2023/08/05 00:49:48;;;;;;;9.23;5.63;;;;;;;;;;5053488;28;20247;-70
2023/08/05 00:52:17;;;;;;;7.20;5.50;;;;;;;;;;5053794;28;20182;-70
2023/08/05 00:54:43;;;;;;;7.63;5.57;;;;;;;;;;5053493;28;20327;-69
2023/08/05 00:57:09;;;;;;;9.00;5.97;;;;;;;;;;5035565;28;20662;-69
2023/08/05 00:59:35;;;;;;;8.90;5.70;;;;;;;;;;5053322;28;20304;-70
2023/08/05 01:02:01;;;;;;;10.13;5.63;;;;;;;;;;5035620;28;20213;-70
2023/08/05 01:04:27;;;;;;;10.87;5.60;;;;;;;;;;5053601;28;20170;-69
2023/08/05 01:06:54;;;;;;;9.53;4.90;;;;;;;;;;5035594;28;20183;-70
2023/08/05 01:09:21;;;;;;;8.00;5.53;;;;;;;;;;5053118;28;20214;-70
2023/08/05 01:11:47;;;;;;;9.23;5.40;;;;;;;;;;5035277;28;20174;-70
2023/08/05 01:14:13;;;;;;;7.73;5.70;;;;;;;;;;5053168;28;20178;-69
2023/08/05 01:16:39;;;;;;;9.57;5.73;;;;;;;;;;5035582;28;20210;-69
2023/08/05 01:19:07;;;;;;;8.77;6.00;;;;;;;;;;5035227;28;20206;-69
2023/08/05 01:21:36;;;;;;;16.20;6.73;;;;;;;;;;5053370;28;20667;-69
2023/08/05 01:24:06;;;;;;;9.43;5.33;;;;;;;;;;5035425;28;20221;-69
2023/08/05 01:26:34;;;;;;;11.40;6.00;;;;;;;;;;5035297;28;20182;-69
2023/08/05 01:29:00;;;;;;;8.93;5.87;;;;;;;;;;5034927;28;20631;-70
2023/08/05 01:31:26;;;;;;;8.57;5.80;;;;;;;;;;5053044;28;20174;-70
2023/08/05 01:33:52;;;;;;;12.80;6.40;;;;;;;;;;5053752;28;20534;-70
2023/08/05 01:36:21;;;;;;;9.17;6.90;;;;;;;;;;5060433;28;20217;-70
2023/08/05 01:38:48;;;;;;;13.07;6.70;;;;;;;;;;5053734;28;20593;-69
2023/08/05 01:41:15;;;;;;;10.53;6.57;;;;;;;;;;5053616;28;20203;-69
2023/08/05 01:43:41;;;;;;;10.53;6.83;;;;;;;;;;5053875;28;20542;-69
2023/08/05 01:46:07;;;;;;;10.73;6.50;;;;;;;;;;5052995;28;20190;-69
2023/08/05 01:48:35;;;;;;;7.50;6.50;;;;;;;;;;5052889;28;20214;-70
2023/08/05 01:51:01;;;;;;;9.47;6.60;;;;;;;;;;5052822;28;20262;-70
2023/08/05 01:53:27;;;;;;;10.80;6.97;;;;;;;;;;5035017;28;20220;-69
2023/08/05 01:55:53;;;;;;;9.40;6.97;;;;;;;;;;5053189;28;20178;-69
2023/08/05 01:58:21;;;;;;;7.47;6.40;;;;;;;;;;5053234;28;20275;-70
2023/08/05 02:00:51;;;;;;;11.20;6.40;;;;;;;;;;5053407;28;20170;-69
2023/08/05 02:03:17;;;;;;;12.40;6.40;;;;;;;;;;5035076;28;20187;-70
2023/08/05 02:05:43;;;;;;;10.93;7.33;;;;;;;;;;5053175;28;20224;-70
2023/08/05 02:08:08;;;;;;;10.17;7.00;;;;;;;;;;5034938;28;20267;-69
2023/08/05 02:10:36;;;;;;;14.83;6.77;;;;;;;;;;5053077;28;20171;-69
2023/08/05 02:13:03;;;;;;;10.97;7.20;;;;;;;;;;5035457;28;20210;-69
2023/08/05 02:15:29;;;;;;;9.77;7.33;;;;;;;;;;5053057;28;20194;-68
2023/08/05 02:17:55;;;;;;;11.43;7.47;;;;;;;;;;5035937;28;20252;-69
2023/08/05 02:20:21;;;;;;;9.20;7.87;;;;;;;;;;5036264;28;20192;-69
2023/08/05 02:22:47;;;;;;;10.87;7.60;;;;;;;;;;5053772;28;20648;-69
2023/08/05 02:25:13;;;;;;;10.23;7.33;;;;;;;;;;5052831;28;20175;-69
2023/08/05 02:27:38;;;;;;;10.73;7.90;;;;;;;;;;5055955;28;20661;-70
2023/08/05 02:30:05;;;;;;;8.70;7.80;;;;;;;;;;5039515;28;20205;-68
2023/08/05 02:32:31;;;;;;;9.50;7.53;;;;;;;;;;5055056;28;20201;-69
2023/08/05 02:34:57;;;;;;;12.67;7.33;;;;;;;;;;5056413;28;20179;-69
2023/08/05 02:37:23;;;;;;;14.63;7.60;;;;;;;;;;5056359;28;20261;-69
2023/08/05 02:39:49;;;;;;;13.17;7.87;;;;;;;;;;5056687;28;20202;-68
2023/08/05 02:42:15;;;;;;;12.27;7.63;;;;;;;;;;5056674;28;20179;-68
2023/08/05 02:44:41;;;;;;;10.80;8.03;;;;;;;;;;5056380;28;20178;-69
2023/08/05 02:47:07;;;;;;;10.87;7.93;;;;;;;;;;5056147;28;20201;-69
2023/08/05 02:49:33;;;;;;;11.43;8.37;;;;;;;;;;5038168;28;20664;-69
2023/08/05 02:51:59;;;;;;;11.63;9.03;;;;;;;;;;5056538;28;20202;-69
2023/08/05 02:54:25;;;;;;;12.87;9.90;;;;;;;;;;5056246;28;20206;-68
2023/08/05 02:56:51;;;;;;;10.67;8.97;;;;;;;;;;5055938;28;20228;-69
2023/08/05 02:59:17;;;;;;;11.83;9.40;;;;;;;;;;5055576;28;20651;-69
2023/08/05 03:01:43;;;;;;;10.93;9.10;;;;;;;;;;5056518;28;20201;-70
2023/08/05 03:04:09;;;;;;;12.43;9.20;;;;;;;;;;5056086;28;20178;-69
2023/08/05 03:06:35;;;;;;;13.60;9.37;;;;;;;;;;5037926;28;20645;-70
2023/08/05 03:09:01;;;;;;;14.87;9.27;;;;;;;;;;5055729;28;20221;-70
2023/08/05 03:11:29;;;;;;;13.53;9.43;;;;;;;;;;5055716;28;20178;-70
2023/08/05 03:13:55;;;;;;;13.17;10.10;;;;;;;;;;5055802;28;20186;-70
2023/08/05 03:16:21;;;;;;;12.10;9.90;;;;;;;;;;5055663;28;20218;-70
2023/08/05 03:18:47;;;;;;;14.00;10.80;;;;;;;;;;5055507;28;20576;-70
2023/08/05 03:21:13;;;;;;;14.07;11.53;;;;;;;;;;5038693;28;20186;-70
2023/08/05 03:23:39;;;;;;;14.27;10.57;;;;;;;;;;5056701;28;20535;-70
2023/08/05 03:26:05;;;;;;;13.37;9.83;;;;;;;;;;5055258;28;20648;-70
2023/08/05 03:28:31;;;;;;;16.30;10.17;;;;;;;;;;5055041;28;20289;-70
2023/08/05 03:30:57;;;;;;;12.43;9.83;;;;;;;;;;5055176;28;20181;-69
2023/08/05 03:33:23;;;;;;;12.90;9.27;;;;;;;;;;5055476;28;20174;-70
2023/08/05 03:35:49;;;;;;;13.37;9.03;;;;;;;;;;5055190;28;20645;-69
2023/08/05 03:38:15;;;;;;;14.13;10.47;;;;;;;;;;5054926;28;20198;-70
2023/08/05 03:40:41;;;;;;;14.50;9.97;;;;;;;;;;5054997;28;20261;-70
2023/08/05 03:43:07;;;;;;;14.27;10.70;;;;;;;;;;5054134;28;20179;-68
2023/08/05 03:45:33;;;;;;;13.77;10.60;;;;;;;;;;5055042;28;20674;-70
2023/08/05 03:47:59;;;;;;;16.13;10.67;;;;;;;;;;5036791;28;20206;-70
2023/08/05 03:50:28;;;;;;;16.87;10.27;;;;;;;;;;5054907;28;20205;-69
2023/08/05 03:52:54;;;;;;;18.00;11.27;;;;;;;;;;5036810;28;20171;-69
2023/08/05 03:55:21;;;;;;;15.27;11.33;;;;;;;;;;5054816;28;20186;-69
2023/08/05 03:57:47;;;;;;;15.30;11.67;;;;;;;;;;5054892;28;20240;-68
2023/08/05 04:00:13;;;;;;;15.00;11.00;;;;;;;;;;5054377;28;20667;-70
2023/08/05 04:02:41;;;;;;;12.97;11.50;;;;;;;;;;5036482;28;20682;-69
2023/08/05 04:05:07;;;;;;;12.77;11.47;;;;;;;;;;5036460;28;20190;-69
2023/08/05 04:07:33;;;;;;;16.63;11.27;;;;;;;;;;5054319;28;20194;-69
2023/08/05 04:10:00;;;;;;;20.97;12.20;;;;;;;;;;5054219;28;20240;-68
2023/08/05 04:12:26;;;;;;;20.00;11.27;;;;;;;;;;5054184;28;20357;-70
2023/08/05 04:14:53;;;;;;;17.83;11.87;;;;;;;;;;5054857;28;20202;-68
2023/08/05 04:17:21;;;;;;;13.43;11.77;;;;;;;;;;5054118;28;20266;-68
2023/08/05 04:19:48;;;;;;;14.13;12.63;;;;;;;;;;5054300;28;20191;-69
2023/08/05 04:22:18;;;;;;;15.30;12.27;;;;;;;;;;5054125;28;20194;-69
2023/08/05 04:24:45;;;;;;;16.77;12.30;;;;;;;;;;5054233;28;20227;-68
2023/08/05 04:27:11;;;;;;;20.60;12.13;;;;;;;;;;5054512;28;20695;-69
2023/08/05 04:29:37;;;;;;;24.57;13.00;;;;;;;;;;5054225;28;20324;-69
2023/08/05 04:32:03;;;;;;;15.90;12.90;;;;;;;;;;5053882;28;20208;-69
2023/08/05 04:34:35;;;;;;;14.47;13.00;;;;;;;;;;5054093;28;20236;-69
2023/08/05 04:37:14;;;;;;;18.03;13.83;;;;;;;;;;5054405;28;20204;-69
2023/08/05 04:39:40;;;;;;;14.83;12.70;;;;;;;;;;5041796;22;20243;-63
2023/08/05 04:42:06;;;;;;;15.00;13.50;;;;;;;;;;5019371;28;20266;-65
2023/08/05 04:44:32;;;;;;;18.03;13.33;;;;;;;;;;5036813;28;20171;-63
2023/08/05 04:46:58;;;;;;;17.83;14.03;;;;;;;;;;5036382;28;20594;-63
2023/08/05 04:49:24;;;;;;;14.93;12.73;;;;;;;;;;5018894;28;20575;-63
2023/08/05 04:51:50;;;;;;;15.07;13.13;;;;;;;;;;5019188;28;20630;-63
2023/08/05 04:54:16;;;;;;;17.03;13.60;;;;;;;;;;5024905;28;20246;-64
2023/08/05 04:56:42;;;;;;;19.07;17.07;;;;;;;;;;5024105;28;20583;-63
2023/08/05 04:59:08;;;;;;;16.83;14.97;;;;;;;;;;5038230;28;20585;-63
2023/08/05 05:01:35;;;;;;;19.00;14.83;;;;;;;;;;5019601;28;20305;-63
2023/08/05 05:04:01;;;;;;;18.07;14.70;;;;;;;;;;5018880;28;20226;-64
2023/08/05 05:06:27;;;;;;;19.43;15.03;;;;;;;;;;5036103;28;20171;-64
2023/08/05 05:08:53;;;;;;;20.40;14.37;;;;;;;;;;5018429;28;20298;-63
2023/08/05 05:11:19;;;;;;;16.53;13.80;;;;;;;;;;5038958;28;20179;-63
2023/08/05 05:13:50;;;;;;;18.20;14.17;;;;;;;;;;5022178;28;20170;-64
2023/08/05 05:16:16;;;;;;;15.73;14.03;;;;;;;;;;5041233;28;20159;-63
2023/08/05 05:18:42;;;;;;;33.07;24.03;;;;;;;;;;5042332;28;20205;-63
2023/08/05 05:21:07;;;;;;;21.97;19.33;;;;;;;;;;5037803;28;20246;-63
2023/08/05 05:23:33;;;;;;;18.40;16.13;;;;;;;;;;5036372;28;20174;-63
2023/08/05 05:25:59;;;;;;;20.27;15.17;;;;;;;;;;5018174;28;20558;-63
2023/08/05 05:28:25;;;;;;;15.83;13.60;;;;;;;;;;5035635;28;20700;-63
2023/08/05 05:30:51;;;;;;;20.50;14.87;;;;;;;;;;5036050;28;20179;-63
2023/08/05 05:33:17;;;;;;;17.10;14.37;;;;;;;;;;5018230;28;20175;-63
2023/08/05 05:35:43;;;;;;;16.40;14.07;;;;;;;;;;5018002;28;20183;-63
2023/08/05 05:38:09;;;;;;;19.03;14.30;;;;;;;;;;5024787;28;20668;-64
2023/08/05 05:40:39;;;;;;;15.97;13.53;;;;;;;;;;5020040;28;20223;-63
2023/08/05 05:43:06;;;;;;;20.63;13.67;;;;;;;;;;5018445;28;20249;-63
2023/08/05 05:45:33;;;;;;;17.03;13.87;;;;;;;;;;5017881;28;20653;-63
2023/08/05 05:47:59;;;;;;;20.87;13.70;;;;;;;;;;5018362;28;20589;-63
2023/08/05 05:50:25;;;;;;;17.37;13.53;;;;;;;;;;5035431;28;20195;-62
2023/08/05 05:52:53;;;;;;;15.60;12.77;;;;;;;;;;5035429;28;20176;-64
2023/08/05 05:55:19;;;;;;;17.43;13.87;;;;;;;;;;5035673;28;20180;-63
2023/08/05 05:57:45;;;;;;;17.17;14.80;;;;;;;;;;5035149;28;20182;-64
2023/08/05 06:00:11;;;;;;;15.47;13.60;;;;;;;;;;5035174;28;20202;-63
2023/08/05 06:02:37;;;;;;;18.27;14.00;;;;;;;;;;5017538;28;20189;-63
2023/08/05 06:05:03;;;;;;;15.73;13.50;;;;;;;;;;5035149;28;20263;-64
2023/08/05 06:07:29;;;;;;;16.20;13.20;;;;;;;;;;5020085;28;20266;-64
2023/08/05 06:09:55;;;;;;;16.60;12.73;;;;;;;;;;5038971;28;20238;-63
2023/08/05 06:12:24;;;;;;;14.87;13.20;;;;;;;;;;5039761;28;20171;-63
2023/08/05 06:14:50;;;;;;;17.20;13.13;;;;;;;;;;5039324;28;20263;-63
2023/08/05 06:17:17;;;;;;;15.60;12.50;;;;;;;;;;5039504;28;20662;-63
2023/08/05 06:19:43;;;;;;;16.53;13.60;;;;;;;;;;5039239;28;20261;-64
2023/08/05 06:22:09;;;;;;;19.80;14.00;;;;;;;;;;5039344;28;20175;-64
2023/08/05 06:24:35;;;;;;;17.53;13.63;;;;;;;;;;5039027;28;20717;-63
2023/08/05 06:27:00;;;;;;;21.33;14.90;;;;;;;;;;5039097;28;20183;-65
2023/08/05 06:29:27;;;;;;;22.13;14.27;;;;;;;;;;5038932;28;20215;-63
2023/08/05 06:31:53;;;;;;;22.53;15.27;;;;;;;;;;5038775;28;20633;-64
2023/08/05 06:34:21;;;;;;;23.47;15.70;;;;;;;;;;5021252;28;20282;-63
2023/08/05 06:36:46;;;;;;;21.13;15.53;;;;;;;;;;5039330;28;20171;-64
2023/08/05 06:39:12;;;;;;;22.60;14.90;;;;;;;;;;5020750;28;20648;-65
2023/08/05 06:41:38;;;;;;;23.43;14.07;;;;;;;;;;5020968;28;20711;-64
2023/08/05 06:44:04;;;;;;;17.93;14.27;;;;;;;;;;5038245;28;20698;-64
2023/08/05 06:46:30;;;;;;;17.63;12.57;;;;;;;;;;5020165;28;20190;-64
2023/08/05 06:48:57;;;;;;;20.90;16.47;;;;;;;;;;5019164;28;20676;-64
2023/08/05 06:51:23;;;;;;;16.37;13.10;;;;;;;;;;5036579;28;20168;-64
2023/08/05 06:53:49;;;;;;;17.80;13.57;;;;;;;;;;5036257;28;20262;-65
2023/08/05 06:56:15;;;;;;;19.47;14.90;;;;;;;;;;5036533;28;20179;-64
2023/08/05 06:58:42;;;;;;;20.70;13.20;;;;;;;;;;5036134;28;20218;-64
2023/08/05 07:01:08;;;;;;;17.27;13.37;;;;;;;;;;5036536;28;20172;-64
2023/08/05 07:03:34;;;;;;;21.87;13.23;;;;;;;;;;5036375;28;20237;-64
2023/08/05 07:06:00;;;;;;;15.23;12.27;;;;;;;;;;5036079;28;20183;-64
2023/08/05 07:08:27;;;;;;;17.87;12.50;;;;;;;;;;5018217;28;20207;-64
2023/08/05 07:10:57;;;;;;;17.83;13.00;;;;;;;;;;5036211;28;20262;-64
2023/08/05 07:13:23;;;;;;;17.80;12.53;;;;;;;;;;5018079;28;20228;-64
2023/08/05 07:15:49;;;;;;;18.93;13.23;;;;;;;;;;5035945;28;20186;-64
2023/08/05 07:18:15;;;;;;;17.83;11.77;;;;;;;;;;5017772;28;20269;-64
2023/08/05 07:20:41;;;;;;;16.03;11.90;;;;;;;;;;5018080;28;20274;-64
2023/08/05 07:23:07;;;;;;;11.67;10.50;;;;;;;;;;5035996;28;20230;-64
2023/08/05 07:25:33;;;;;;;12.30;10.20;;;;;;;;;;5018569;28;20217;-64
2023/08/05 07:27:59;;;;;;;11.87;10.03;;;;;;;;;;5036345;28;20226;-65
2023/08/05 07:30:25;;;;;;;14.07;11.93;;;;;;;;;;5017952;28;20199;-64
2023/08/05 07:32:51;;;;;;;18.73;11.17;;;;;;;;;;5036053;28;20179;-64
2023/08/05 07:35:17;;;;;;;15.30;12.20;;;;;;;;;;5036054;28;20176;-64
2023/08/05 07:37:43;;;;;;;15.80;11.37;;;;;;;;;;5035922;28;20179;-65
2023/08/05 07:40:12;;;;;;;15.70;11.43;;;;;;;;;;5017723;28;20254;-64
2023/08/05 07:42:39;;;;;;;16.20;13.53;;;;;;;;;;5017889;28;20649;-64
2023/08/05 07:45:10;;;;;;;14.70;11.33;;;;;;;;;;5035753;28;20176;-64
2023/08/05 07:47:40;;;;;;;16.63;10.57;;;;;;;;;;5035532;28;20187;-64
2023/08/05 07:50:07;;;;;;;11.90;8.47;;;;;;;;;;5018414;28;20279;-64
2023/08/05 07:52:33;;;;;;;10.23;8.93;;;;;;;;;;5020426;28;20175;-64
2023/08/05 07:54:59;;;;;;;12.10;8.13;;;;;;;;;;5026753;28;20179;-64
2023/08/05 07:57:25;;;;;;;12.17;8.23;;;;;;;;;;5042837;28;20176;-64
2023/08/05 07:59:52;;;;;;;11.77;7.27;;;;;;;;;;5019485;28;20284;-64
2023/08/05 08:02:18;;;;;;;10.37;7.70;;;;;;;;;;5035913;28;20617;-64
2023/08/05 08:04:44;;;;;;;12.30;7.40;;;;;;;;;;5035907;28;20660;-65
2023/08/05 08:07:11;;;;;;;10.23;6.60;;;;;;;;;;5035309;28;20182;-64
2023/08/05 08:09:37;;;;;;;10.17;7.47;;;;;;;;;;5035299;28;20215;-64
2023/08/05 08:12:03;;;;;;;11.97;8.40;;;;;;;;;;5035409;28;20198;-65
2023/08/05 08:14:29;;;;;;;7.63;6.83;;;;;;;;;;5017312;28;20191;-64
2023/08/05 08:16:55;;;;;;;7.60;6.53;;;;;;;;;;5017163;28;20183;-64
2023/08/05 08:19:22;;;;;;;10.67;7.33;;;;;;;;;;5017172;28;20261;-64
2023/08/05 08:21:48;;;;;;;9.13;7.20;;;;;;;;;;5034949;28;20576;-64
2023/08/05 08:24:14;;;;;;;12.43;6.40;;;;;;;;;;5017051;28;20206;-65
2023/08/05 08:26:40;;;;;;;7.60;5.30;;;;;;;;;;5017413;28;20573;-64
2023/08/05 08:29:06;;;;;;;7.83;4.23;;;;;;;;;;5033772;28;20215;-64
2023/08/05 08:31:33;;;;;;;6.83;5.50;;;;;;;;;;5035058;28;20181;-64
2023/08/05 08:33:59;;;;;;;7.60;4.90;;;;;;;;;;5034974;28;20175;-64
2023/08/05 08:36:25;;;;;;;5.93;4.60;;;;;;;;;;5034243;28;20233;-64
2023/08/05 08:38:52;;;;;;;6.90;4.70;;;;;;;;;;5016754;28;20620;-65
2023/08/05 08:41:18;;;;;;;11.63;6.23;;;;;;;;;;5034409;28;20163;-64
2023/08/05 08:43:45;;;;;;;14.77;6.20;;;;;;;;;;5016764;28;20189;-64
2023/08/05 08:46:12;;;;;;;10.73;6.30;;;;;;;;;;5016465;28;20623;-66
2023/08/05 08:48:39;;;;;;;8.63;5.10;;;;;;;;;;5016697;28;20595;-64
2023/08/05 08:51:06;;;;;;;5.53;4.30;;;;;;;;;;5016612;28;20186;-64
2023/08/05 08:53:32;;;;;;;8.50;4.30;;;;;;;;;;5034496;28;20183;-64
2023/08/05 08:55:58;;;;;;;6.20;4.60;;;;;;;;;;5016651;28;20175;-64
2023/08/05 08:58:24;;;;;;;9.53;4.37;;;;;;;;;;5034232;28;20175;-64
2023/08/05 09:00:50;;;;;;;6.93;4.00;;;;;;;;;;5034189;28;20187;-64
2023/08/05 09:03:18;;;;;;;6.33;3.97;;;;;;;;;;5034203;28;20691;-64
2023/08/05 09:05:46;;;;;;;7.60;3.90;;;;;;;;;;5016258;28;20183;-64
2023/08/05 09:08:12;;;;;;;9.37;3.80;;;;;;;;;;5033998;28;20203;-65
2023/08/05 09:10:38;;;;;;;5.73;3.90;;;;;;;;;;5016696;28;20195;-65
2023/08/05 09:13:05;;;;;;;4.87;3.57;;;;;;;;;;5035015;28;20699;-65
2023/08/05 09:15:32;;;;;;;5.40;3.70;;;;;;;;;;5035043;28;20206;-65
2023/08/05 09:17:58;;;;;;;4.67;3.70;;;;;;;;;;5035403;28;20640;-65
2023/08/05 09:20:24;;;;;;;4.93;3.30;;;;;;;;;;5034429;28;20278;-65
2023/08/05 09:22:57;;;;;;;9.70;4.30;;;;;;;;;;5016565;28;20237;-65
2023/08/05 09:25:24;;;;;;;10.53;5.77;;;;;;;;;;5033924;28;20187;-65
2023/08/05 09:27:53;;;;;;;7.93;5.10;;;;;;;;;;5016169;28;20218;-65
2023/08/05 09:30:20;;;;;;;9.57;4.80;;;;;;;;;;5016052;28;20266;-65
2023/08/05 09:32:46;;;;;;;5.87;4.30;;;;;;;;;;5016087;28;20203;-65
2023/08/05 09:35:13;;;;;;;9.10;5.73;;;;;;;;;;5033828;28;20183;-65
2023/08/05 09:37:40;;;;;;;6.20;4.57;;;;;;;;;;5033528;28;20295;-65
2023/08/05 09:40:16;;;;;;;9.17;5.50;;;;;;;;;;5033492;28;20753;-65
2023/08/05 09:42:43;;;;;;;9.50;4.60;;;;;;;;;;5020173;28;20190;-65
2023/08/05 09:45:12;;;;;;;6.90;4.90;;;;;;;;;;5037882;28;20175;-65
2023/08/05 09:47:39;;;;;;;7.47;5.07;;;;;;;;;;5019894;28;20207;-65
2023/08/05 09:50:08;;;;;;;8.67;4.80;;;;;;;;;;5037720;28;20190;-65
2023/08/05 09:52:34;;;;;;;9.00;4.80;;;;;;;;;;5019805;28;20182;-65
2023/08/05 09:55:01;;;;;;;7.80;5.37;;;;;;;;;;5019726;28;20190;-65
2023/08/05 09:57:28;;;;;;;7.93;4.93;;;;;;;;;;5037706;28;20266;-65
2023/08/05 09:59:54;;;;;;;6.13;4.13;;;;;;;;;;5019577;28;20230;-65
2023/08/05 10:02:25;;;;;;;5.50;4.37;;;;;;;;;;5019759;28;20179;-67
2023/08/05 10:04:56;;;;;;;6.80;3.90;;;;;;;;;;5022842;28;20187;-65
2023/08/05 10:07:23;;;;;;;8.93;5.57;;;;;;;;;;5021393;28;20218;-65
2023/08/05 10:09:49;;;;;;;9.27;5.87;;;;;;;;;;5037575;28;20206;-65
2023/08/05 10:12:30;;;;;;;10.40;6.23;;;;;;;;;;5020008;28;20179;-66
2023/08/05 10:14:56;;;;;;;13.17;5.90;;;;;;;;;;5037679;28;20229;-66
2023/08/05 10:17:22;;;;;;;8.13;5.23;;;;;;;;;;5037279;28;20174;-65
2023/08/05 10:19:50;;;;;;;5.27;4.67;;;;;;;;;;5019325;28;20206;-66
2023/08/05 10:22:23;;;;;;;4.80;4.23;;;;;;;;;;5019706;28;20182;-66
2023/08/05 10:24:56;;;;;;;6.20;4.53;;;;;;;;;;5037371;28;20168;-65
2023/08/05 10:27:34;;;;;;;5.70;4.40;;;;;;;;;;5037211;28;20251;-66
2023/08/05 10:30:11;;;;;;;4.77;3.53;;;;;;;;;;5036969;28;20198;-64
2023/08/05 10:32:49;;;;;;;4.67;4.00;;;;;;;;;;5037652;28;20183;-66
2023/08/05 10:35:25;;;;;;;5.73;3.00;;;;;;;;;;5026853;28;20182;-67
2023/08/05 10:38:04;;;;;;;5.70;3.90;;;;;;;;;;5047600;28;20170;-66
2023/08/05 10:40:39;;;;;;;6.37;4.17;;;;;;;;;;5042055;28;20696;-66
2023/08/05 10:43:05;;;;;;;6.50;4.73;;;;;;;;;;5037519;28;20253;-66
2023/08/05 10:45:34;;;;;;;6.27;4.20;;;;;;;;;;5036892;28;20180;-66
2023/08/05 10:48:00;;;;;;;10.03;4.70;;;;;;;;;;5036795;28;20740;-65
2023/08/05 10:50:41;;;;;;;3.30;3.00;;;;;;;;;;5036398;28;20578;-65
2023/08/05 10:53:08;;;;;;;7.53;3.13;;;;;;;;;;5018434;28;20530;-65
2023/08/05 10:55:51;;;;;;;4.63;2.70;;;;;;;;;;5036743;28;20178;-66
2023/08/05 10:58:21;;;;;;;4.93;2.70;;;;;;;;;;5019137;28;20221;-65
2023/08/05 11:00:55;;;;;;;3.63;3.23;;;;;;;;;;5018555;28;20179;-65
2023/08/05 11:03:23;;;;;;;7.53;4.60;;;;;;;;;;5036726;28;20175;-65
2023/08/05 11:05:49;;;;;;;4.77;3.90;;;;;;;;;;5036119;28;20203;-65
2023/08/05 11:08:22;;;;;;;4.63;3.47;;;;;;;;;;5018221;28;20257;-66
2023/08/05 11:10:51;;;;;;;5.80;3.40;;;;;;;;;;5036094;28;20170;-65
2023/08/05 11:13:18;;;;;;;3.67;3.10;;;;;;;;;;5035969;28;20178;-65
2023/08/05 11:16:03;;;;;;;9.50;4.20;;;;;;;;;;5018147;28;20258;-65
2023/08/05 11:18:30;;;;;;;3.83;3.40;;;;;;;;;;5017875;28;20182;-65
2023/08/05 11:20:56;;;;;;;7.77;5.50;;;;;;;;;;5035810;28;20175;-65
2023/08/05 11:23:23;;;;;;;6.30;4.37;;;;;;;;;;5036088;28;20198;-65
2023/08/05 11:25:49;;;;;;;4.33;2.97;;;;;;;;;;5035871;28;20179;-66
2023/08/05 11:28:15;;;;;;;3.53;3.23;;;;;;;;;;5017909;28;20213;-65
2023/08/05 11:30:41;;;;;;;6.53;3.83;;;;;;;;;;5035305;28;20183;-66
2023/08/05 11:33:07;;;;;;;7.93;3.60;;;;;;;;;;5035632;28;20188;-65
2023/08/05 11:35:33;;;;;;;3.97;3.47;;;;;;;;;;5035511;28;20183;-65
2023/08/05 11:37:59;;;;;;;6.50;4.20;;;;;;;;;;5017892;28;20183;-65
2023/08/05 11:40:26;;;;;;;4.57;3.17;;;;;;;;;;5017438;28;20229;-66
2023/08/05 11:42:55;;;;;;;3.70;3.40;;;;;;;;;;5035627;28;20743;-66
2023/08/05 11:45:21;;;;;;;3.97;3.20;;;;;;;;;;5035325;28;20197;-66
2023/08/05 11:47:47;;;;;;;3.30;3.00;;;;;;;;;;5035440;28;20207;-65
2023/08/05 11:50:13;;;;;;;7.63;3.37;;;;;;;;;;5035211;28;20280;-66
2023/08/05 11:52:39;;;;;;;7.57;4.17;;;;;;;;;;5035757;28;20171;-65
2023/08/05 11:55:06;;;;;;;4.53;3.57;;;;;;;;;;5017774;28;20609;-66
2023/08/05 11:57:32;;;;;;;7.97;4.50;;;;;;;;;;5017315;28;20183;-65
2023/08/05 12:00:09;;;;;;;6.87;3.40;;;;;;;;;;5035321;28;20191;-65
2023/08/05 12:02:35;;;;;;;5.13;3.60;;;;;;;;;;5017715;28;20530;-65
2023/08/05 12:05:01;;;;;;;3.87;3.00;;;;;;;;;;5016485;28;20187;-66
2023/08/05 12:07:28;;;;;;;6.23;4.60;;;;;;;;;;5017199;28;20259;-66
2023/08/05 12:10:04;;;;;;;4.70;3.50;;;;;;;;;;5035211;28;20269;-66
2023/08/05 12:12:30;;;;;;;5.70;3.27;;;;;;;;;;5017433;28;20270;-66
2023/08/05 12:15:09;;;;;;;6.27;3.07;;;;;;;;;;5036045;28;20207;-66
2023/08/05 12:17:35;;;;;;;7.20;3.60;;;;;;;;;;5035338;28;20178;-66
2023/08/05 12:20:01;;;;;;;6.20;3.60;;;;;;;;;;5017287;28;20207;-66
2023/08/05 12:22:27;;;;;;;7.40;4.30;;;;;;;;;;5034804;28;20180;-66
2023/08/05 12:24:53;;;;;;;3.50;3.00;;;;;;;;;;5034697;28;20182;-66
2023/08/05 12:27:19;;;;;;;3.77;3.47;;;;;;;;;;5017318;28;20187;-66
2023/08/05 12:29:45;;;;;;;8.63;4.00;;;;;;;;;;5034393;28;20215;-66
2023/08/05 12:32:11;;;;;;;5.17;2.97;;;;;;;;;;5034689;28;20697;-66
2023/08/05 12:34:37;;;;;;;3.63;3.17;;;;;;;;;;5035008;28;20695;-66
2023/08/05 12:37:03;;;;;;;4.00;3.20;;;;;;;;;;5016608;28;20608;-66
2023/08/05 12:39:29;;;;;;;4.67;3.17;;;;;;;;;;5016658;28;20572;-66
2023/08/05 12:41:55;;;;;;;3.70;3.27;;;;;;;;;;5034695;28;20175;-66
2023/08/05 12:44:21;;;;;;;4.13;3.30;;;;;;;;;;5016862;28;20218;-66
2023/08/05 12:46:47;;;;;;;3.47;3.03;;;;;;;;;;5035434;28;20633;-66
2023/08/05 12:49:13;;;;;;;3.57;3.07;;;;;;;;;;5034667;28;20207;-66
2023/08/05 12:51:39;;;;;;;7.70;1.97;;;;;;;;;;5034616;28;20179;-66
2023/08/05 12:54:05;;;;;;;7.13;2.40;;;;;;;;;;5034704;28;20199;-66
2023/08/05 12:56:31;;;;;;;3.47;2.77;;;;;;;;;;5034273;28;20175;-65
2023/08/05 12:58:56;;;;;;;5.37;2.97;;;;;;;;;;5034365;28;20209;-66
2023/08/05 13:01:22;;;;;;;7.07;3.27;;;;;;;;;;5034120;28;20180;-65
2023/08/05 13:03:49;;;;;;;2.70;2.50;;;;;;;;;;5016526;28;20203;-65
2023/08/05 13:06:15;;;;;;;5.87;2.87;;;;;;;;;;5034130;28;20211;-65
2023/08/05 13:08:41;;;;;;;3.63;2.83;;;;;;;;;;5033841;28;20261;-65
2023/08/05 13:11:07;;;;;;;3.10;2.87;;;;;;;;;;5034158;28;20182;-65
2023/08/05 13:13:33;;;;;;;3.53;3.23;;;;;;;;;;5034276;28;20190;-65
2023/08/05 13:15:59;;;;;;;3.67;3.37;;;;;;;;;;5016146;28;20550;-65
2023/08/05 13:18:25;;;;;;;4.47;4.00;;;;;;;;;;5034756;28;20182;-65
2023/08/05 13:20:51;;;;;;;5.97;4.73;;;;;;;;;;5034862;28;20190;-65
2023/08/05 13:23:17;;;;;;;9.50;5.80;;;;;;;;;;5039984;28;20179;-66
2023/08/05 13:25:44;;;;;;;7.80;5.90;;;;;;;;;;5034128;28;20183;-65
2023/08/05 13:28:10;;;;;;;10.97;6.10;;;;;;;;;;5033936;28;20202;-65
2023/08/05 13:30:36;;;;;;;7.83;6.47;;;;;;;;;;5016032;28;20195;-65
2023/08/05 13:33:02;;;;;;;8.00;6.53;;;;;;;;;;5016316;28;20669;-65
2023/08/05 13:35:28;;;;;;;7.87;6.60;;;;;;;;;;5034088;28;20699;-65
2023/08/05 13:37:54;;;;;;;8.20;7.47;;;;;;;;;;5033599;28;20275;-65
2023/08/05 13:40:21;;;;;;;10.30;7.07;;;;;;;;;;5033217;28;20649;-65
2023/08/05 13:42:47;;;;;;;9.77;6.53;;;;;;;;;;5015902;28;20190;-66
2023/08/05 13:45:13;;;;;;;8.90;6.90;;;;;;;;;;5033375;28;20285;-65
2023/08/05 13:47:39;;;;;;;8.83;7.90;;;;;;;;;;5033322;28;20692;-65
2023/08/05 13:50:05;;;;;;;9.07;8.27;;;;;;;;;;5015480;28;20195;-65
2023/08/05 13:52:31;;;;;;;7.60;6.80;;;;;;;;;;5033405;28;20182;-65
2023/08/05 13:54:57;;;;;;;14.87;6.93;;;;;;;;;;5015588;28;20182;-66
2023/08/05 13:57:23;;;;;;;8.37;6.90;;;;;;;;;;5016068;28;20179;-65
2023/08/05 13:59:49;;;;;;;8.33;6.80;;;;;;;;;;5034285;28;20282;-66
2023/08/05 14:02:15;;;;;;;7.80;7.00;;;;;;;;;;5016131;28;20190;-65
2023/08/05 14:04:44;;;;;;;9.40;8.20;;;;;;;;;;5033961;28;20195;-66
2023/08/05 14:07:10;;;;;;;9.60;8.33;;;;;;;;;;5033711;28;20194;-66
2023/08/05 14:09:36;;;;;;;9.60;8.27;;;;;;;;;;5033770;28;20282;-66
2023/08/05 14:12:03;;;;;;;11.63;9.13;;;;;;;;;;5033629;28;20641;-67
2023/08/05 14:14:29;;;;;;;10.57;9.23;;;;;;;;;;5033477;28;20646;-66
2023/08/05 14:16:55;;;;;;;12.07;9.27;;;;;;;;;;5033166;28;20259;-66
2023/08/05 14:19:20;;;;;;;11.53;9.67;;;;;;;;;;5015266;28;20298;-66
2023/08/05 14:21:46;;;;;;;11.37;9.60;;;;;;;;;;5033144;28;20175;-66
2023/08/05 14:24:13;;;;;;;13.83;9.23;;;;;;;;;;5015467;28;20187;-66
2023/08/05 14:26:39;;;;;;;10.03;9.10;;;;;;;;;;5015620;28;20185;-67
2023/08/05 14:29:04;;;;;;;10.57;9.23;;;;;;;;;;5019578;28;20302;-67